createdAt,value
2024-03-03T00:00:47.093Z,54.47
2024-03-03T00:03:13.772Z,57.38
2024-03-03T00:05:40.330Z,51.67
2024-03-03T00:08:07.381Z,53.55
2024-03-03T00:10:33.878Z,46.25
2024-03-03T00:13:02.073Z,52.45
2024-03-03T00:15:28.660Z,53.33
2024-03-03T00:17:55.246Z,47.85
2024-03-03T00:20:21.806Z,56.17
2024-03-03T00:22:48.341Z,56.43
2024-03-03T00:25:14.973Z,50.75
2024-03-03T00:27:41.598Z,47.73
2024-03-03T00:30:10.773Z,60.70
2024-03-03T00:32:37.250Z,49.85
2024-03-03T00:35:05.330Z,54.50
2024-03-03T00:37:31.900Z,56.35
2024-03-03T00:39:58.426Z,49.70
2024-03-03T00:42:24.950Z,62.80
2024-03-03T00:44:51.617Z,59.33
2024-03-03T00:47:19.616Z,53.38
2024-03-03T00:49:47.544Z,54.05
2024-03-03T00:52:15.377Z,54.42
2024-03-03T00:54:41.942Z,53.03
2024-03-03T00:57:08.527Z,56.53
2024-03-03T00:59:35.066Z,54.88
2024-03-03T01:02:02.107Z,56.83
2024-03-03T01:04:30.227Z,63.95
2024-03-03T01:06:56.735Z,62.28
2024-03-03T01:09:23.608Z,58.75
2024-03-03T01:11:50.169Z,63.15
2024-03-03T01:14:16.784Z,68.57
2024-03-03T01:16:43.279Z,62.97
2024-03-03T01:19:09.841Z,62.85
2024-03-03T01:21:40.675Z,59.53
2024-03-03T01:24:07.549Z,65.30
2024-03-03T01:26:34.110Z,60.38
2024-03-03T01:29:00.610Z,57.07
2024-03-03T01:31:27.102Z,65.13
2024-03-03T01:33:53.708Z,56.75
2024-03-03T01:36:20.196Z,73.07
2024-03-03T01:38:48.099Z,71.60
2024-03-03T01:41:14.672Z,70.07
2024-03-03T01:43:41.179Z,65.30
2024-03-03T01:46:10.036Z,63.20
2024-03-03T01:48:36.702Z,67.97
2024-03-03T01:51:05.151Z,62.73
2024-03-03T01:53:32.391Z,64.22
2024-03-03T01:56:00.963Z,65.65
2024-03-03T01:58:29.030Z,62.42
2024-03-03T02:00:58.577Z,63.65
2024-03-03T02:03:25.289Z,69.35
2024-03-03T02:05:51.910Z,58.50
2024-03-03T02:08:18.690Z,65.70
2024-03-03T02:10:45.478Z,66.53
2024-03-03T02:13:13.513Z,66.57
2024-03-03T02:15:40.097Z,68.60
2024-03-03T02:18:06.703Z,71.53
2024-03-03T02:20:33.235Z,70.23
2024-03-03T02:23:01.069Z,71.30
2024-03-03T02:25:27.760Z,66.45
2024-03-03T02:27:54.441Z,72.20
2024-03-03T02:30:21.058Z,65.30
2024-03-03T02:32:47.585Z,61.73
2024-03-03T02:35:14.091Z,68.17
2024-03-03T02:37:40.625Z,71.22
2024-03-03T02:40:09.637Z,70.38
2024-03-03T02:42:37.146Z,61.85
2024-03-03T02:45:04.700Z,69.78
2024-03-03T02:47:31.394Z,68.43
2024-03-03T02:49:57.971Z,70.82
2024-03-03T02:52:24.526Z,65.17
2024-03-03T02:54:51.012Z,65.53
2024-03-03T02:57:18.879Z,63.88
2024-03-03T02:59:45.564Z,65.75
2024-03-03T03:02:12.079Z,72.43
2024-03-03T03:04:38.567Z,66.85
2024-03-03T03:07:05.126Z,39.92
2024-03-03T03:09:31.917Z,65.53
2024-03-03T03:11:58.554Z,66.18
2024-03-03T03:14:26.453Z,64.97
2024-03-03T03:16:53.067Z,61.08
2024-03-03T03:19:19.653Z,69.07
2024-03-03T03:21:46.162Z,64.80
2024-03-03T03:24:12.731Z,69.37
2024-03-03T03:26:39.230Z,68.63
2024-03-03T03:29:05.774Z,69.40
2024-03-03T03:31:33.627Z,73.47
2024-03-03T03:34:00.204Z,68.55
2024-03-03T03:36:26.685Z,63.40
2024-03-03T03:38:53.188Z,64.22
2024-03-03T03:41:19.708Z,68.10
2024-03-03T03:43:46.241Z,65.67
2024-03-03T03:46:12.775Z,71.88
2024-03-03T03:48:40.677Z,69.73
2024-03-03T03:51:07.193Z,72.15
2024-03-03T03:53:33.785Z,67.78
2024-03-03T03:56:00.554Z,62.73
2024-03-03T03:58:27.031Z,72.03
2024-03-03T04:00:53.662Z,49.90
2024-03-03T04:03:20.287Z,65.05
2024-03-03T04:05:48.132Z,62.67
2024-03-03T04:08:14.689Z,60.92
2024-03-03T04:10:41.292Z,57.13
2024-03-03T04:13:07.827Z,55.42
2024-03-03T04:15:34.341Z,59.00
2024-03-03T04:18:00.911Z,69.95
2024-03-03T04:20:27.444Z,62.83
2024-03-03T04:22:55.293Z,55.97
2024-03-03T04:25:21.893Z,55.70
2024-03-03T04:27:48.530Z,66.80
2024-03-03T04:30:15.282Z,59.30
2024-03-03T04:32:41.854Z,59.67
2024-03-03T04:35:09.246Z,64.80
2024-03-03T04:37:35.746Z,60.25
2024-03-03T04:40:04.413Z,66.40
2024-03-03T04:42:30.926Z,56.95
2024-03-03T04:44:57.461Z,62.08
2024-03-03T04:47:23.942Z,63.65
2024-03-03T04:49:50.786Z,57.77
2024-03-03T04:52:17.462Z,66.75
2024-03-03T04:54:44.063Z,67.97
2024-03-03T04:57:12.097Z,63.83
2024-03-03T04:59:38.604Z,66.32
2024-03-03T05:02:05.530Z,64.25
2024-03-03T05:04:32.120Z,64.22
2024-03-03T05:06:58.687Z,69.15
2024-03-03T05:09:25.202Z,67.53
2024-03-03T05:11:51.698Z,67.15
2024-03-03T05:14:19.521Z,69.03
2024-03-03T05:16:46.013Z,62.28
2024-03-03T05:19:12.550Z,66.22
2024-03-03T05:21:39.151Z,69.83
2024-03-03T05:24:06.183Z,60.83
2024-03-03T05:26:32.693Z,67.15
2024-03-03T05:28:59.199Z,58.15
2024-03-03T05:31:33.494Z,70.75
2024-03-03T05:33:59.976Z,67.15
2024-03-03T05:36:26.542Z,72.88
2024-03-03T05:38:53.045Z,71.03
2024-03-03T05:41:19.521Z,79.82
2024-03-03T05:43:46.004Z,71.07
2024-03-03T05:46:12.608Z,72.97
2024-03-03T05:48:40.692Z,77.45
2024-03-03T05:51:07.212Z,77.30
2024-03-03T05:53:33.734Z,73.70
2024-03-03T05:56:00.216Z,74.35
2024-03-03T05:58:26.732Z,83.43
2024-03-03T06:00:53.298Z,80.33
2024-03-03T06:03:19.835Z,84.10
2024-03-03T06:05:47.656Z,78.43
2024-03-03T06:08:14.191Z,77.90
2024-03-03T06:10:40.651Z,78.28
2024-03-03T06:13:07.137Z,85.63
2024-03-03T06:15:33.664Z,70.90
2024-03-03T06:18:00.231Z,77.40
2024-03-03T06:20:26.797Z,70.60
2024-03-03T06:22:54.615Z,76.07
2024-03-03T06:25:21.157Z,60.88
2024-03-03T06:27:47.684Z,60.67
2024-03-03T06:30:14.295Z,66.93
2024-03-03T06:32:40.883Z,59.60
2024-03-03T06:35:09.315Z,64.72
2024-03-03T06:37:35.836Z,62.90
2024-03-03T06:40:05.195Z,60.58
2024-03-03T06:42:31.675Z,56.30
2024-03-03T06:44:58.158Z,56.83
2024-03-03T06:47:24.629Z,59.63
2024-03-03T06:49:51.140Z,57.20
2024-03-03T06:52:17.702Z,57.58
2024-03-03T06:54:44.237Z,61.00
2024-03-03T06:57:12.201Z,60.50
2024-03-03T06:59:38.696Z,60.92
2024-03-03T07:02:05.406Z,60.25
2024-03-03T07:04:32.009Z,58.20
2024-03-03T07:06:58.588Z,60.80
2024-03-03T07:09:25.153Z,66.37
2024-03-03T07:11:52.106Z,69.47
2024-03-03T07:14:20.637Z,62.10
2024-03-03T07:16:47.525Z,68.28
2024-03-03T07:19:14.117Z,59.33
2024-03-03T07:21:40.925Z,64.40
2024-03-03T07:24:07.516Z,62.92
2024-03-03T07:26:34.114Z,70.85
2024-03-03T07:29:00.600Z,65.20
2024-03-03T07:31:28.529Z,66.35
2024-03-03T07:33:55.186Z,59.25
2024-03-03T07:36:21.774Z,55.17
2024-03-03T07:38:48.318Z,55.20
2024-03-03T07:41:15.094Z,67.70
2024-03-03T07:43:41.662Z,62.83
2024-03-03T07:46:08.221Z,62.80
2024-03-03T07:48:36.377Z,62.80
2024-03-03T07:51:03.559Z,58.53
2024-03-03T07:53:30.033Z,61.67
2024-03-03T07:55:56.557Z,57.30
2024-03-03T07:58:23.147Z,57.10
2024-03-03T08:00:50.022Z,59.00
2024-03-03T08:03:16.684Z,64.15
2024-03-03T08:05:44.515Z,56.25
2024-03-03T08:08:12.515Z,53.95
2024-03-03T08:10:39.082Z,58.88
2024-03-03T08:13:05.678Z,56.55
2024-03-03T08:15:32.185Z,55.43
2024-03-03T08:18:01.627Z,51.63
2024-03-03T08:20:28.822Z,57.30
2024-03-03T08:22:56.958Z,53.88
2024-03-03T08:25:23.889Z,52.55
2024-03-03T08:27:50.490Z,52.90
2024-03-03T08:30:16.983Z,48.90
2024-03-03T08:32:43.569Z,48.30
2024-03-03T08:35:10.138Z,40.80
2024-03-03T08:37:37.377Z,43.60
2024-03-03T08:40:06.793Z,43.75
2024-03-03T08:42:33.600Z,44.47
2024-03-03T08:45:00.187Z,45.78
2024-03-03T08:47:26.785Z,43.13
2024-03-03T08:49:53.310Z,44.97
2024-03-03T08:52:19.947Z,38.30
2024-03-03T08:54:46.598Z,43.27
2024-03-03T08:57:14.495Z,43.73
2024-03-03T08:59:40.973Z,36.92
2024-03-03T09:02:07.619Z,49.80
2024-03-03T09:04:34.302Z,42.25
2024-03-03T09:07:00.828Z,37.30
2024-03-03T09:09:27.362Z,43.53
2024-03-03T09:11:53.839Z,39.05
2024-03-03T09:14:21.736Z,32.78
2024-03-03T09:16:48.204Z,35.38
2024-03-03T09:19:14.770Z,37.47
2024-03-03T09:21:41.773Z,36.47
2024-03-03T09:24:09.679Z,33.70
2024-03-03T09:26:36.375Z,30.02
2024-03-03T09:29:03.101Z,31.13
2024-03-03T09:31:31.020Z,33.65
2024-03-03T09:33:57.580Z,37.05
2024-03-03T09:36:24.101Z,32.00
2024-03-03T09:38:50.617Z,32.72
2024-03-03T09:41:18.260Z,31.65
2024-03-03T09:43:49.938Z,29.33
2024-03-03T09:46:18.300Z,30.50
2024-03-03T09:48:47.412Z,29.77
2024-03-03T09:51:14.450Z,30.67
2024-03-03T09:53:43.154Z,29.73
2024-03-03T09:56:12.518Z,26.52
2024-03-03T09:58:39.401Z,27.88
2024-03-03T10:01:09.623Z,24.85
2024-03-03T10:03:37.068Z,24.08
2024-03-03T10:06:07.974Z,24.73
2024-03-03T10:08:36.284Z,21.83
2024-03-03T10:11:07.259Z,22.83
2024-03-03T10:13:33.944Z,22.67
2024-03-03T10:16:02.345Z,25.02
2024-03-03T10:18:28.958Z,24.73
2024-03-03T10:20:55.607Z,17.80
2024-03-03T10:23:23.765Z,20.17
2024-03-03T10:25:54.498Z,19.65
2024-03-03T10:28:21.115Z,14.80
2024-03-03T10:30:47.646Z,12.53
2024-03-03T10:33:14.332Z,13.50
2024-03-03T10:35:40.884Z,13.00
2024-03-03T10:38:10.274Z,16.47
2024-03-03T10:40:38.228Z,10.95
2024-03-03T10:43:05.188Z,13.02
2024-03-03T10:45:31.717Z,13.00
2024-03-03T10:47:58.956Z,11.52
2024-03-03T10:50:25.986Z,16.33
2024-03-03T10:52:53.724Z,13.20
2024-03-03T10:55:20.382Z,12.55
2024-03-03T10:57:50.843Z,15.27
2024-03-03T11:00:17.614Z,11.07
2024-03-03T11:02:46.052Z,11.27
2024-03-03T11:05:13.870Z,14.70
2024-03-03T11:07:40.533Z,10.63
2024-03-03T11:10:08.404Z,14.65
2024-03-03T11:12:37.229Z,11.65
2024-03-03T11:15:06.393Z,9.68
2024-03-03T11:17:36.505Z,8.55
2024-03-03T11:20:04.934Z,9.05
2024-03-03T11:22:33.992Z,7.75
2024-03-03T11:25:05.380Z,9.00
2024-03-03T11:27:37.216Z,10.52
2024-03-03T11:30:09.400Z,9.40
2024-03-03T11:32:36.672Z,6.93
2024-03-03T11:37:31.518Z,6.78
2024-03-03T11:40:00.303Z,5.15
2024-03-03T11:42:37.951Z,5.28
2024-03-03T11:45:07.316Z,5.57
2024-03-03T11:47:34.962Z,5.18
2024-03-03T11:50:02.284Z,6.65
2024-03-03T11:55:05.288Z,5.55
2024-03-03T11:57:31.797Z,3.90
2024-03-03T11:59:59.608Z,3.95
2024-03-03T12:02:27.755Z,3.53
2024-03-03T12:04:54.210Z,8.98
2024-03-03T12:07:20.885Z,3.25
2024-03-03T12:09:47.856Z,3.83
2024-03-03T12:12:14.574Z,3.00
2024-03-03T12:14:41.809Z,4.90
2024-03-03T12:19:37.246Z,7.65
2024-03-03T12:22:04.870Z,3.75
2024-03-03T12:24:31.440Z,3.00
2024-03-03T12:26:58.001Z,5.43
2024-03-03T12:29:24.504Z,5.90
2024-03-03T12:31:51.061Z,3.40
2024-03-03T12:34:17.615Z,3.25
2024-03-03T12:36:46.013Z,2.57
2024-03-03T12:39:13.040Z,5.00
2024-03-03T12:41:39.582Z,3.25
2024-03-03T12:44:06.350Z,4.43
2024-03-03T12:46:32.967Z,4.22
2024-03-03T12:48:59.640Z,6.55
2024-03-03T12:51:26.325Z,3.43
2024-03-03T12:53:54.739Z,5.00
2024-03-03T12:56:22.727Z,3.20
2024-03-03T12:58:49.707Z,4.53
2024-03-03T13:01:17.409Z,2.47
2024-03-03T13:03:47.547Z,1.92
2024-03-03T13:06:15.099Z,3.75
2024-03-03T13:11:10.622Z,2.53
2024-03-03T13:13:38.402Z,2.03
2024-03-03T13:16:05.936Z,1.45
2024-03-03T13:18:32.566Z,7.43
2024-03-03T13:21:09.037Z,1.53
2024-03-03T13:23:35.505Z,1.77
2024-03-03T13:26:02.201Z,1.17
2024-03-03T13:28:33.588Z,3.20
2024-03-03T13:31:02.231Z,0.68
2024-03-03T13:33:29.351Z,1.45
2024-03-03T13:35:55.986Z,1.75
2024-03-03T13:38:22.545Z,0.85
2024-03-03T13:40:49.122Z,1.70
2024-03-03T13:43:15.865Z,2.00
2024-03-03T13:45:43.875Z,3.45
2024-03-03T13:48:12.064Z,2.33
2024-03-03T13:50:38.577Z,1.83
2024-03-03T13:53:05.334Z,1.55
2024-03-03T13:55:31.935Z,3.00
2024-03-03T13:57:58.600Z,0.88
2024-03-03T14:00:25.140Z,1.48
2024-03-03T14:02:52.969Z,6.97
2024-03-03T14:05:19.469Z,2.53
2024-03-03T14:07:46.665Z,1.77
2024-03-03T14:10:15.249Z,1.30
2024-03-03T14:12:41.785Z,0.88
2024-03-03T14:15:09.314Z,1.67
2024-03-03T14:17:36.280Z,0.77
2024-03-03T14:20:04.905Z,2.78
2024-03-03T14:22:31.553Z,1.27
2024-03-03T14:24:58.078Z,1.25
2024-03-03T14:27:24.776Z,1.30
2024-03-03T14:29:51.285Z,1.45
2024-03-03T14:32:17.835Z,2.10
2024-03-03T14:34:44.344Z,0.60
2024-03-03T14:37:12.319Z,4.00
2024-03-03T14:39:38.778Z,1.27
2024-03-03T14:42:05.559Z,1.27
2024-03-03T14:44:32.033Z,1.83
2024-03-03T14:46:58.588Z,1.13
2024-03-03T14:49:25.267Z,3.70
2024-03-03T14:51:51.821Z,2.38
2024-03-03T14:54:19.663Z,6.23
2024-03-03T14:56:46.215Z,4.25
2024-03-03T14:59:12.725Z,1.03
2024-03-03T15:01:39.281Z,1.65
2024-03-03T15:04:05.936Z,1.33
2024-03-03T15:06:32.500Z,4.43
2024-03-03T15:08:59.123Z,4.57
2024-03-03T15:11:26.956Z,1.40
2024-03-03T15:13:53.540Z,2.67
2024-03-03T15:16:20.472Z,0.93
2024-03-03T15:18:47.023Z,1.05
2024-03-03T15:21:13.537Z,2.50
2024-03-03T15:23:41.491Z,1.65
2024-03-03T15:26:08.247Z,2.30
2024-03-03T15:28:36.443Z,4.57
2024-03-03T15:31:04.295Z,1.08
2024-03-03T15:33:31.918Z,4.15
2024-03-03T15:35:59.692Z,3.75
2024-03-03T15:38:26.543Z,0.63
2024-03-03T15:40:53.010Z,1.45
2024-03-03T15:43:19.524Z,4.72
2024-03-03T15:45:47.562Z,2.03
2024-03-03T15:48:14.157Z,0.73
2024-03-03T15:50:40.870Z,3.37
2024-03-03T15:53:07.500Z,11.13
2024-03-03T15:55:36.184Z,2.93
2024-03-03T15:58:04.517Z,4.43
2024-03-03T16:00:31.081Z,1.73
2024-03-03T16:02:59.371Z,2.17
2024-03-03T16:05:26.596Z,3.70
2024-03-03T16:07:53.147Z,1.75
2024-03-03T16:10:19.688Z,2.93
2024-03-03T16:12:46.503Z,2.05
2024-03-03T16:15:13.308Z,1.55
2024-03-03T16:17:40.011Z,1.77
2024-03-03T16:20:09.040Z,1.90
2024-03-03T16:22:35.564Z,1.83
2024-03-03T16:25:02.164Z,2.57
2024-03-03T16:27:28.885Z,2.57
2024-03-03T16:29:55.392Z,3.33
2024-03-03T16:32:21.891Z,2.17
2024-03-03T16:34:48.386Z,2.28
2024-03-03T16:37:16.344Z,1.05
2024-03-03T16:39:43.221Z,1.73
2024-03-03T16:42:10.222Z,2.03
2024-03-03T16:44:36.824Z,2.63
2024-03-03T16:47:03.529Z,2.47
2024-03-03T16:49:30.090Z,1.60
2024-03-03T16:51:59.010Z,1.07
2024-03-03T16:54:27.172Z,1.80
2024-03-03T16:56:53.773Z,3.05
2024-03-03T16:59:20.321Z,2.33
2024-03-03T17:01:46.859Z,2.05
2024-03-03T17:04:13.541Z,3.03
2024-03-03T17:06:40.081Z,7.93
2024-03-03T17:09:06.556Z,7.25
2024-03-03T17:11:34.444Z,4.00
2024-03-03T17:14:00.946Z,4.53
2024-03-03T17:16:27.482Z,4.03
2024-03-03T17:18:54.076Z,2.45
2024-03-03T17:21:20.663Z,5.27
2024-03-03T17:23:47.148Z,3.53
2024-03-03T17:26:13.771Z,3.50
2024-03-03T17:28:41.669Z,3.03
2024-03-03T17:31:08.331Z,4.18
2024-03-03T17:33:34.934Z,3.97
2024-03-03T17:36:01.629Z,3.95
2024-03-03T17:38:28.264Z,6.38
2024-03-03T17:40:54.751Z,11.47
2024-03-03T17:43:21.345Z,11.48
2024-03-03T17:45:49.259Z,17.13
2024-03-03T17:48:15.814Z,11.45
2024-03-03T17:50:42.487Z,11.07
2024-03-03T17:53:09.015Z,12.97
2024-03-03T17:55:35.584Z,9.25
2024-03-03T17:58:02.195Z,9.10
2024-03-03T18:00:28.770Z,9.37
2024-03-03T18:02:56.603Z,10.10
2024-03-03T18:05:23.130Z,23.33
2024-03-03T18:07:49.705Z,30.58
2024-03-03T18:10:16.358Z,25.38
2024-03-03T18:12:42.890Z,28.53
2024-03-03T18:15:10.632Z,37.60
2024-03-03T18:17:37.567Z,30.35
2024-03-03T18:20:07.124Z,33.28
2024-03-03T18:22:33.841Z,18.50
2024-03-03T18:25:00.487Z,20.20
2024-03-03T18:27:27.148Z,13.57
2024-03-03T18:29:53.816Z,15.73
2024-03-03T18:32:20.377Z,12.73
2024-03-03T18:34:46.876Z,13.00
2024-03-03T18:37:14.815Z,8.65
2024-03-03T18:39:41.334Z,9.00
2024-03-03T18:42:09.150Z,7.28
2024-03-03T18:44:35.690Z,7.47
2024-03-03T18:47:02.256Z,7.13
2024-03-03T18:49:28.852Z,7.97
2024-03-03T18:51:55.625Z,10.77
2024-03-03T18:54:23.872Z,9.23
2024-03-03T18:56:50.404Z,15.15
2024-03-03T18:59:17.050Z,17.67
2024-03-03T19:01:43.718Z,17.30
2024-03-03T19:04:10.273Z,17.30
2024-03-03T19:06:36.807Z,15.00
2024-03-03T19:09:03.606Z,15.43
2024-03-03T19:11:31.547Z,16.88
2024-03-03T19:13:58.072Z,16.67
2024-03-03T19:16:24.613Z,17.33
2024-03-03T19:18:51.200Z,17.73
2024-03-03T19:21:17.764Z,16.03
2024-03-03T19:23:44.260Z,14.55
2024-03-03T19:26:10.829Z,17.98
2024-03-03T19:28:38.941Z,15.03
2024-03-03T19:31:05.756Z,16.02
2024-03-03T19:33:32.342Z,14.80
2024-03-03T19:35:58.857Z,18.23
2024-03-03T19:38:25.333Z,10.82
2024-03-03T19:40:51.925Z,14.40
2024-03-03T19:43:18.471Z,13.73
2024-03-03T19:45:46.373Z,16.83
2024-03-03T19:48:12.911Z,10.30
2024-03-03T19:50:39.449Z,11.85
2024-03-03T19:53:05.945Z,11.05
2024-03-03T19:55:32.877Z,11.25
2024-03-03T19:57:59.493Z,9.90
2024-03-03T20:00:26.071Z,12.50
2024-03-03T20:02:53.992Z,10.20
2024-03-03T20:05:20.487Z,14.93
2024-03-03T20:07:47.308Z,11.10
2024-03-03T20:10:14.120Z,11.07
2024-03-03T20:12:40.802Z,9.55
2024-03-03T20:15:08.248Z,9.23
2024-03-03T20:20:02.493Z,9.05
2024-03-03T20:22:29.062Z,11.95
2024-03-03T20:24:55.624Z,11.88
2024-03-03T20:27:22.126Z,10.13
2024-03-03T20:29:48.632Z,13.05
2024-03-03T20:32:15.285Z,11.18
2024-03-03T20:34:41.878Z,13.00
2024-03-03T20:37:09.779Z,12.70
2024-03-03T20:39:36.288Z,14.27
2024-03-03T20:42:02.900Z,10.88
2024-03-03T20:44:29.388Z,12.20
2024-03-03T20:46:55.865Z,13.52
2024-03-03T20:49:22.472Z,12.05
2024-03-03T20:51:49.039Z,13.30
2024-03-03T20:54:16.920Z,10.93
2024-03-03T20:56:43.461Z,9.73
2024-03-03T20:59:09.950Z,8.30
2024-03-03T21:01:36.943Z,9.48
2024-03-03T21:04:03.848Z,11.65
2024-03-03T21:06:30.463Z,9.60
2024-03-03T21:08:57.015Z,8.93
2024-03-03T21:11:24.957Z,9.00
2024-03-03T21:13:51.451Z,9.45
2024-03-03T21:16:18.002Z,10.18
2024-03-03T21:18:44.586Z,10.23
2024-03-03T21:21:11.308Z,8.17
2024-03-03T21:23:37.814Z,10.55
2024-03-03T21:26:04.820Z,8.87
2024-03-03T21:28:32.918Z,10.65
2024-03-03T21:30:59.477Z,8.85
2024-03-03T21:33:26.009Z,9.65
2024-03-03T21:35:52.512Z,8.75
2024-03-03T21:38:19.018Z,10.82
2024-03-03T21:40:45.532Z,10.30
2024-03-03T21:43:12.563Z,19.70
2024-03-03T21:45:41.053Z,14.18
2024-03-03T21:48:07.971Z,15.52
2024-03-03T21:50:34.518Z,10.00
2024-03-03T21:53:01.038Z,14.48
2024-03-03T21:55:27.586Z,11.90
2024-03-03T21:57:54.136Z,13.63
2024-03-03T22:00:21.307Z,11.93
2024-03-03T22:02:49.363Z,13.65
2024-03-03T22:05:15.874Z,13.23
2024-03-03T22:07:42.542Z,20.67
2024-03-03T22:10:10.237Z,18.70
2024-03-03T22:12:36.744Z,13.88
2024-03-03T22:15:03.709Z,16.27
2024-03-03T22:17:30.230Z,15.50
2024-03-03T22:19:58.097Z,15.63
2024-03-03T22:22:24.690Z,12.77
2024-03-03T22:24:51.236Z,13.90
2024-03-03T22:27:17.809Z,17.93
2024-03-03T22:29:44.304Z,29.00
2024-03-03T22:32:10.825Z,26.33
2024-03-03T22:34:37.381Z,26.35
2024-03-03T22:37:05.397Z,21.33
2024-03-03T22:39:31.871Z,26.88
2024-03-03T22:41:58.359Z,24.75
2024-03-03T22:44:24.849Z,26.20
2024-03-03T22:46:53.895Z,22.15
2024-03-03T22:49:21.689Z,25.02
2024-03-03T22:51:48.561Z,23.65
2024-03-03T22:54:16.427Z,22.13
2024-03-03T22:56:42.976Z,18.02
2024-03-03T22:59:09.578Z,20.70
2024-03-03T23:01:36.253Z,19.10
2024-03-03T23:04:02.911Z,19.35
2024-03-03T23:06:29.429Z,20.00
2024-03-03T23:08:55.924Z,19.88
2024-03-03T23:11:23.793Z,21.77
2024-03-03T23:13:50.331Z,20.67
2024-03-03T23:16:16.943Z,19.70
2024-03-03T23:18:43.538Z,17.97
2024-03-03T23:21:11.298Z,19.33
2024-03-03T23:23:37.782Z,15.00
2024-03-03T23:26:05.319Z,14.32
2024-03-03T23:30:59.580Z,16.15
2024-03-03T23:33:26.081Z,15.80
2024-03-03T23:35:52.594Z,13.90
2024-03-03T23:38:19.093Z,19.25
2024-03-03T23:40:45.600Z,16.90
2024-03-03T23:43:12.660Z,17.27
2024-03-03T23:45:40.614Z,18.02
2024-03-03T23:48:07.633Z,24.58
2024-03-03T23:50:34.172Z,18.70
2024-03-03T23:53:00.713Z,21.27
2024-03-03T23:55:27.302Z,21.75
2024-03-03T23:57:53.859Z,16.37
